createdAt,value
2022-12-08T00:03:16.651Z,80.13
2022-12-08T00:07:43.383Z,79.90
2022-12-08T00:11:51.801Z,79.92
2022-12-08T00:16:04.320Z,79.97
2022-12-08T00:20:13.669Z,79.95
2022-12-08T00:24:21.740Z,80.09
2022-12-08T00:28:29.644Z,80.06
2022-12-08T00:32:36.816Z,80.05
2022-12-08T00:36:46.203Z,79.91
2022-12-08T00:40:53.608Z,79.85
2022-12-08T00:45:01.484Z,79.83
2022-12-08T00:49:10.651Z,79.62
2022-12-08T00:53:18.100Z,79.71
2022-12-08T00:57:25.957Z,79.80
2022-12-08T01:01:33.870Z,79.90
2022-12-08T01:05:42.253Z,79.76
2022-12-08T01:09:49.694Z,79.73
2022-12-08T01:13:57.265Z,79.84
2022-12-08T01:18:04.838Z,79.62
2022-12-08T01:22:12.412Z,79.59
2022-12-08T01:26:21.843Z,79.50
2022-12-08T01:30:29.858Z,79.56
2022-12-08T01:34:36.992Z,79.67
2022-12-08T01:38:44.627Z,79.49
2022-12-08T01:42:52.791Z,79.50
2022-12-08T01:47:00.506Z,79.66
2022-12-08T01:51:08.941Z,79.82
2022-12-08T01:55:20.812Z,79.82
2022-12-08T01:59:28.880Z,79.72
2022-12-08T02:03:39.868Z,79.81
2022-12-08T02:07:49.094Z,79.75
2022-12-08T02:11:59.255Z,79.65
2022-12-08T02:16:10.184Z,79.64
2022-12-08T02:20:35.683Z,79.71
2022-12-08T02:24:48.522Z,79.84
2022-12-08T02:29:23.357Z,80.11
2022-12-08T02:34:00.399Z,79.86
2022-12-08T02:38:14.645Z,79.84
2022-12-08T02:42:28.072Z,79.87
2022-12-08T02:46:39.616Z,79.86
2022-12-08T02:50:47.721Z,79.88
2022-12-08T02:54:58.363Z,80.09
2022-12-08T02:59:15.386Z,80.11
2022-12-08T03:03:30.765Z,80.00
2022-12-08T03:07:42.337Z,80.06
2022-12-08T03:11:54.534Z,80.16
2022-12-08T03:16:03.979Z,80.39
2022-12-08T03:20:14.827Z,80.29
2022-12-08T03:24:25.124Z,80.16
2022-12-08T03:28:33.015Z,80.38
2022-12-08T03:32:48.006Z,80.38
2022-12-08T03:36:56.146Z,80.35
2022-12-08T03:41:22.357Z,80.35
2022-12-08T03:45:30.930Z,80.63
2022-12-08T03:49:39.354Z,80.37
2022-12-08T03:53:48.402Z,80.51
2022-12-08T03:57:56.570Z,80.56
2022-12-08T04:02:04.197Z,80.70
2022-12-08T04:06:13.023Z,80.57
2022-12-08T04:10:20.761Z,80.46
2022-12-08T04:14:28.072Z,80.30
2022-12-08T04:18:36.211Z,80.36
2022-12-08T04:22:44.349Z,80.33
2022-12-08T04:26:52.277Z,80.29
2022-12-08T04:31:02.316Z,80.37
2022-12-08T04:35:11.766Z,80.35
2022-12-08T04:39:21.438Z,80.45
2022-12-08T04:43:29.452Z,80.20
2022-12-08T04:47:37.402Z,80.21
2022-12-08T04:51:45.474Z,80.56
2022-12-08T04:55:53.316Z,80.24
2022-12-08T05:00:01.933Z,80.51
2022-12-08T05:04:10.581Z,80.42
2022-12-08T05:08:18.277Z,80.39
2022-12-08T05:12:25.472Z,80.43
2022-12-08T05:16:33.585Z,80.36
2022-12-08T05:20:41.235Z,80.24
2022-12-08T05:24:48.642Z,80.23
2022-12-08T05:28:56.162Z,80.45
2022-12-08T05:33:03.798Z,80.15
2022-12-08T05:37:11.316Z,80.58
2022-12-08T05:41:20.444Z,80.45
2022-12-08T05:45:28.206Z,80.53
2022-12-08T05:49:36.502Z,80.58
2022-12-08T05:53:44.197Z,80.91
2022-12-08T05:57:51.860Z,80.93
2022-12-08T06:02:00.704Z,80.95
2022-12-08T06:06:09.228Z,80.83
2022-12-08T06:10:17.477Z,80.86
2022-12-08T06:14:25.055Z,80.90
2022-12-08T06:18:33.167Z,80.69
2022-12-08T06:22:41.816Z,80.65
2022-12-08T06:26:49.520Z,80.89
2022-12-08T06:30:57.712Z,80.56
2022-12-08T06:35:05.720Z,80.81
2022-12-08T06:39:13.706Z,81.07
2022-12-08T06:43:22.298Z,81.05
2022-12-08T06:47:30.660Z,81.06
2022-12-08T06:51:38.555Z,80.96
2022-12-08T06:55:59.340Z,81.21
2022-12-08T07:00:09.926Z,81.37
2022-12-08T07:04:18.519Z,81.06
2022-12-08T07:08:26.052Z,81.02
2022-12-08T07:12:34.581Z,81.11
2022-12-08T07:16:42.359Z,80.88
2022-12-08T07:20:50.003Z,80.84
2022-12-08T07:24:57.328Z,81.13
2022-12-08T07:29:05.134Z,81.08
2022-12-08T07:33:13.137Z,80.91
2022-12-08T07:37:21.050Z,80.63
2022-12-08T07:41:29.716Z,80.90
2022-12-08T07:45:37.556Z,81.00
2022-12-08T07:49:45.396Z,80.83
2022-12-08T07:53:55.001Z,80.97
2022-12-08T07:58:03.347Z,80.73
2022-12-08T08:02:25.964Z,80.26
2022-12-08T08:06:34.465Z,80.16
2022-12-08T08:10:42.313Z,79.76
2022-12-08T08:14:50.196Z,80.01
2022-12-08T08:18:58.210Z,79.39
2022-12-08T08:23:07.711Z,79.50
2022-12-08T08:27:15.973Z,78.95
2022-12-08T08:31:29.522Z,79.14
2022-12-08T08:35:38.269Z,78.65
2022-12-08T08:39:46.130Z,78.45
2022-12-08T08:43:54.095Z,78.12
2022-12-08T08:48:01.948Z,77.86
2022-12-08T08:52:12.176Z,77.57
2022-12-08T08:56:21.786Z,77.49
2022-12-08T09:00:29.696Z,77.31
2022-12-08T09:04:37.319Z,77.24
2022-12-08T09:08:45.852Z,77.10
2022-12-08T09:12:53.722Z,76.82
2022-12-08T09:17:02.841Z,76.36
2022-12-08T09:21:15.385Z,76.32
2022-12-08T09:25:22.711Z,76.36
2022-12-08T09:29:35.643Z,75.68
2022-12-08T09:33:45.155Z,75.63
2022-12-08T09:37:52.849Z,75.52
2022-12-08T09:42:03.496Z,75.80
2022-12-08T09:46:14.306Z,75.38
2022-12-08T09:50:31.891Z,75.55
2022-12-08T09:54:39.333Z,75.12
2022-12-08T09:58:53.868Z,75.21
2022-12-08T10:03:01.685Z,75.18
2022-12-08T10:07:18.108Z,75.65
2022-12-08T10:11:30.934Z,75.43
2022-12-08T10:15:45.373Z,75.18
2022-12-08T10:19:55.464Z,75.10
2022-12-08T10:24:07.885Z,74.90
2022-12-08T10:28:17.345Z,74.64
2022-12-08T10:32:27.012Z,74.55
2022-12-08T10:36:51.978Z,74.40
2022-12-08T10:41:06.213Z,73.88
2022-12-08T10:45:26.774Z,73.48
2022-12-08T10:49:36.190Z,72.82
2022-12-08T10:53:49.615Z,72.50
2022-12-08T10:57:57.696Z,72.19
2022-12-08T11:02:09.548Z,72.16
2022-12-08T11:06:21.423Z,72.37
2022-12-08T11:10:37.171Z,72.45
2022-12-08T11:14:53.264Z,72.60
2022-12-08T11:19:01.129Z,72.57
2022-12-08T11:23:22.386Z,72.41
2022-12-08T11:27:30.774Z,72.33
2022-12-08T11:31:42.645Z,72.10
2022-12-08T11:35:53.147Z,72.20
2022-12-08T11:40:05.525Z,71.99
2022-12-08T11:44:27.809Z,71.75
2022-12-08T11:48:39.681Z,71.56
2022-12-08T11:52:50.667Z,71.63
2022-12-08T11:57:00.204Z,71.39
2022-12-08T12:01:10.318Z,71.79
2022-12-08T12:05:47.584Z,72.16
2022-12-08T12:10:11.804Z,72.08
2022-12-08T12:14:33.130Z,72.54
2022-12-08T12:18:46.892Z,72.36
2022-12-08T12:22:59.498Z,72.30
2022-12-08T12:27:21.244Z,72.64
2022-12-08T12:31:31.283Z,72.35
2022-12-08T12:35:42.377Z,72.52
2022-12-08T12:39:56.063Z,72.12
2022-12-08T12:44:37.972Z,71.92
2022-12-08T12:48:45.654Z,71.57
2022-12-08T12:52:53.303Z,71.38
2022-12-08T12:57:22.636Z,71.45
2022-12-08T13:01:57.216Z,71.28
2022-12-08T13:06:09.933Z,71.09
2022-12-08T13:10:23.415Z,70.94
2022-12-08T13:14:33.729Z,71.01
2022-12-08T13:18:44.248Z,70.74
2022-12-08T13:23:26.857Z,70.70
2022-12-08T13:27:37.942Z,70.62
2022-12-08T13:31:50.639Z,70.77
2022-12-08T13:36:12.449Z,70.68
2022-12-08T13:40:22.977Z,70.48
2022-12-08T13:58:06.581Z,70.81
2022-12-08T14:02:20.204Z,70.76
2022-12-08T14:06:31.892Z,70.77
2022-12-08T14:10:40.119Z,70.88
2022-12-08T14:15:05.293Z,71.14
2022-12-08T14:19:24.642Z,71.12
2022-12-08T14:23:33.354Z,71.29
2022-12-08T14:27:41.176Z,71.47
2022-12-08T14:31:49.097Z,71.67
2022-12-08T14:35:57.450Z,72.05
2022-12-08T14:40:08.278Z,72.14
2022-12-08T14:44:25.101Z,72.26
2022-12-08T14:48:44.951Z,72.28
2022-12-08T14:52:52.612Z,72.39
2022-12-08T14:57:01.832Z,72.54
2022-12-08T15:01:10.469Z,72.78
2022-12-08T15:05:20.879Z,72.95
2022-12-08T15:09:36.897Z,73.32
2022-12-08T15:13:49.934Z,73.49
2022-12-08T15:18:07.927Z,73.71
2022-12-08T15:22:19.501Z,74.09
2022-12-08T15:26:29.127Z,74.07
2022-12-08T15:30:36.433Z,74.34
2022-12-08T15:34:44.124Z,74.18
2022-12-08T15:38:53.259Z,74.56
2022-12-08T15:43:01.555Z,74.73
2022-12-08T15:47:12.004Z,74.47
2022-12-08T15:51:20.160Z,74.76
2022-12-08T15:55:28.256Z,74.39
2022-12-08T15:59:36.315Z,74.16
2022-12-08T16:04:25.457Z,74.04
2022-12-08T16:08:44.672Z,73.60
2022-12-08T16:17:24.680Z,73.69
2022-12-08T16:22:04.673Z,73.29
2022-12-08T16:26:28.653Z,72.91
2022-12-08T16:30:28.668Z,73.67
2022-12-08T16:34:36.328Z,73.33
2022-12-08T16:38:44.293Z,73.25
2022-12-08T16:42:52.153Z,73.07
2022-12-08T16:46:59.711Z,73.09
2022-12-08T16:51:10.569Z,72.80
2022-12-08T16:55:20.165Z,73.34
2022-12-08T16:59:28.382Z,73.27
2022-12-08T17:03:35.895Z,73.16
2022-12-08T17:07:44.165Z,73.21
2022-12-08T17:11:51.587Z,72.90
2022-12-08T17:15:59.582Z,72.98
2022-12-08T17:20:09.819Z,73.37
2022-12-08T17:24:21.918Z,73.47
2022-12-08T17:28:51.900Z,73.52
2022-12-08T17:32:58.766Z,73.54
2022-12-08T17:37:06.840Z,73.82
2022-12-08T17:41:15.359Z,73.70
2022-12-08T17:45:23.801Z,73.97
2022-12-08T17:49:33.048Z,74.02
2022-12-08T17:53:41.176Z,74.43
2022-12-08T17:57:49.098Z,75.12
2022-12-08T18:01:57.004Z,75.20
2022-12-08T18:06:09.185Z,75.21
2022-12-08T18:10:16.665Z,74.98
2022-12-08T18:14:24.890Z,75.06
2022-12-08T18:18:32.940Z,75.41
2022-12-08T18:22:41.080Z,75.52
2022-12-08T18:26:49.449Z,75.57
2022-12-08T18:30:56.719Z,76.09
2022-12-08T18:35:04.692Z,76.22
2022-12-08T18:39:24.260Z,76.71
2022-12-08T18:43:31.892Z,77.06
2022-12-08T18:47:40.838Z,77.08
2022-12-08T18:51:48.753Z,77.31
2022-12-08T18:55:56.148Z,77.42
2022-12-08T19:00:03.875Z,77.78
2022-12-08T19:04:28.854Z,77.98
2022-12-08T19:08:37.404Z,77.95
2022-12-08T19:12:45.469Z,78.36
2022-12-08T19:16:54.796Z,78.50
2022-12-08T19:21:02.368Z,78.75
2022-12-08T19:25:12.005Z,78.89
2022-12-08T19:29:20.495Z,78.84
2022-12-08T19:33:29.411Z,79.10
2022-12-08T19:37:37.221Z,78.91
2022-12-08T19:42:03.810Z,78.76
2022-12-08T19:46:12.294Z,78.78
2022-12-08T19:50:40.018Z,78.72
2022-12-08T19:54:47.416Z,78.64
2022-12-08T19:58:54.791Z,78.59
2022-12-08T20:03:04.820Z,78.28
2022-12-08T20:07:15.899Z,78.66
2022-12-08T20:11:23.221Z,78.26
2022-12-08T20:15:31.041Z,78.17
2022-12-08T20:19:38.755Z,78.29
2022-12-08T20:23:50.310Z,78.32
2022-12-08T20:27:59.291Z,78.16
2022-12-08T20:32:07.642Z,78.22
2022-12-08T20:36:19.810Z,78.18
2022-12-08T20:40:27.844Z,78.13
2022-12-08T20:44:35.787Z,77.99
2022-12-08T20:48:43.645Z,78.01
2022-12-08T20:52:51.481Z,77.87
2022-12-08T20:56:59.038Z,77.86
2022-12-08T21:01:13.288Z,77.79
2022-12-08T21:05:21.727Z,78.14
2022-12-08T21:09:29.917Z,78.26
2022-12-08T21:13:39.090Z,78.37
2022-12-08T21:17:47.732Z,78.39
2022-12-08T21:21:56.091Z,78.40
2022-12-08T21:26:04.467Z,78.37
2022-12-08T21:30:14.462Z,78.35
2022-12-08T21:34:22.164Z,78.35
2022-12-08T21:38:30.382Z,78.59
2022-12-08T21:42:45.037Z,78.31
2022-12-08T21:46:52.795Z,78.29
2022-12-08T21:51:06.992Z,78.60
2022-12-08T21:55:15.794Z,78.87
2022-12-08T21:59:23.600Z,78.87
2022-12-08T22:03:31.290Z,79.01
2022-12-08T22:07:42.540Z,79.04
2022-12-08T22:11:50.194Z,79.32
2022-12-08T22:16:01.694Z,79.59
2022-12-08T22:20:13.428Z,79.80
2022-12-08T22:24:21.783Z,79.81
2022-12-08T22:28:32.321Z,79.87
2022-12-08T22:32:39.985Z,79.76
2022-12-08T22:36:49.294Z,79.64
2022-12-08T22:40:57.569Z,79.68
2022-12-08T22:45:05.617Z,79.54
2022-12-08T22:49:13.080Z,79.26
2022-12-08T22:53:20.859Z,79.28
2022-12-08T22:57:28.638Z,79.20
2022-12-08T23:01:37.886Z,79.17
2022-12-08T23:05:45.789Z,79.27
2022-12-08T23:09:53.609Z,79.03
2022-12-08T23:14:07.825Z,79.05
2022-12-08T23:18:19.344Z,79.16
2022-12-08T23:22:28.091Z,79.11
2022-12-08T23:26:36.351Z,79.34
2022-12-08T23:30:44.436Z,79.10
2022-12-08T23:34:52.371Z,78.89
2022-12-08T23:39:00.229Z,78.97
2022-12-08T23:43:09.318Z,78.95
2022-12-08T23:47:17.304Z,78.84
2022-12-08T23:51:25.138Z,78.62
2022-12-08T23:55:32.995Z,78.82
2022-12-08T23:59:41.032Z,78.98
